Item Display Status Humidity-temperature Sensor

Elevation Above Sea Level: 3 m

 

Deployed Sensor

  • Serial Number: 61378499
  • NDBC Property Number: 39625
  • Start Date: 11/20/2016 (17:43:48 Z)
  • End Date: Currently Active
Relative Humidity [%]     6 entries per hour
Showing data from 6/17/2018 (23:00:00 Z) to 6/16/2018 (00:00:01 Z)
Previous Next [ Day | 3-Days | 7-Days ]
First Last
Prev [ Day | 3-Days | 7-Days ] Next
First Last

Start Time:     :
End Time:     :     
Time (in GMT) :00 :50 :40 :30 :20 :10
Previous Next [ Day | 3-Days | 7-Days ]
First Last
Prev [ Day | 3-Days | 7-Days ] Next
First Last


123 => good data
MM => data is determined as missing
-- => data not received/configured
Back to Top Back to Top
6/17/2018 23:00 to 22:10 92.49 92.28 92.97 93.18 93.56 93.66
6/17/2018 22:00 to 21:10 93.66 93.68 93.81 93.81 93.54 93.36
6/17/2018 21:00 to 20:10 93.14 92.55 92.14 92.28 92.57 92.99
6/17/2018 20:00 to 19:10 93.26 93.40 93.56 93.32 93.40 93.18
6/17/2018 19:00 to 18:10 92.06 89.97 89.81 89.81 89.38 88.91
6/17/2018 18:00 to 17:10 88.87 88.55 88.57 89.14 89.58 90.44
6/17/2018 17:00 to 16:10 91.98 92.85 92.73 92.14 91.47 91.43
6/17/2018 16:00 to 15:10 91.21 90.96 89.95 87.45 86.03 84.43
6/17/2018 15:00 to 14:10 84.33 84.47 85.61 87.19 88.33 88.24
6/17/2018 14:00 to 13:10 85.97 83.80 80.84 81.42 81.20 81.30
6/17/2018 13:00 to 12:10 82.40 81.08 80.53 80.90 80.86 80.63
6/17/2018 12:00 to 11:10 81.24 81.00 80.43 81.42 81.02 80.53
6/17/2018 11:00 to 10:10 81.26 80.59 80.67 80.69 80.37 80.77
6/17/2018 10:00 to 9:10 81.06 80.61 80.92 80.94 80.45 80.63
6/17/2018 09:00 to 8:10 80.47 81.26 80.25 80.35 80.17 80.47
6/17/2018 08:00 to 7:10 80.61 80.57 80.80 80.10 79.72 79.96
6/17/2018 07:00 to 6:10 80.19 80.35 80.21 79.68 79.68 80.15
6/17/2018 06:00 to 5:10 79.60 79.19 79.44 79.07 79.41 78.89
6/17/2018 05:00 to 4:10 79.01 78.85 79.13 79.31 79.46 79.33
6/17/2018 04:00 to 3:10 79.46 79.21 78.72 79.27 79.27 79.48
6/17/2018 03:00 to 2:10 79.62 79.11 78.87 79.11 79.01 79.33
6/17/2018 02:00 to 1:10 79.23 79.39 78.79 78.74 78.54 78.30
6/17/2018 01:00 to 0:10 77.55 76.96 76.37 76.27 77.00 76.92
6/17/2018 00:00 to 23:10 77.77 77.75 77.73 77.77 76.65 76.19
6/16/2018 23:00 to 22:10 77.08 77.02 77.04 76.47 76.67 76.67
6/16/2018 22:00 to 21:10 76.88 77.49 77.97 77.36 77.24 77.51
6/16/2018 21:00 to 20:10 77.91 77.79 78.10 78.50 79.50 79.92
6/16/2018 20:00 to 19:10 80.41 79.84 80.23 80.71 81.40 79.76
6/16/2018 19:00 to 18:10 78.05 77.51 79.27 79.23 77.47 76.98
6/16/2018 18:00 to 17:10 76.39 76.74 77.45 77.30 77.20 77.67
6/16/2018 17:00 to 16:10 77.41 77.34 76.90 77.12 78.36 79.07
6/16/2018 16:00 to 15:10 79.86 80.67 78.40 77.87 78.48 78.50
6/16/2018 15:00 to 14:10 77.38 78.62 79.25 79.37 78.64 79.09
6/16/2018 14:00 to 13:10 79.66 79.64 79.39 79.78 79.60 80.00
6/16/2018 13:00 to 12:10 79.94 79.56 79.92 80.31 80.67 80.96
6/16/2018 12:00 to 11:10 81.85 82.95 83.37 83.58 83.94 82.72
6/16/2018 11:00 to 10:10 82.07 82.18 81.77 81.51 81.46 81.46
6/16/2018 10:00 to 9:10 80.59 80.06 78.64 76.23 75.74 76.29
6/16/2018 09:00 to 8:10 76.96 77.51 78.20 78.83 78.30 79.29
6/16/2018 08:00 to 7:10 80.00 80.53 80.08 81.87 81.44 80.90
6/16/2018 07:00 to 6:10 80.63 80.49 80.49 80.06 80.19 80.37
6/16/2018 06:00 to 5:10 80.49 81.04 81.18 81.04 81.57 81.99
6/16/2018 05:00 to 4:10 82.91 84.10 84.61 84.87 85.69 86.13
6/16/2018 04:00 to 3:10 85.79 84.31 81.00 80.49 78.95 77.53
6/16/2018 03:00 to 2:10 76.78 76.27 75.13 74.26 73.33 73.18
6/16/2018 02:00 to 1:10 72.72 72.15 73.14 74.38 74.79 75.07
6/16/2018 01:00 to 0:10 75.21 76.69 82.18 86.21 88.02 88.81

 

 

 

Air Temperature [°C]     6 entries per hour
Showing data from 6/17/2018 (23:00:00 Z) to 6/16/2018 (00:00:01 Z)
Previous Next [ Day | 3-Days | 7-Days ]
First Last
Prev [ Day | 3-Days | 7-Days ] Next
First Last

Start Time:     :
End Time:     :     
Time (in GMT) :00 :50 :40 :30 :20 :10
Previous Next [ Day | 3-Days | 7-Days ]
First Last
Prev [ Day | 3-Days | 7-Days ] Next
First Last


123 => good data
MM => data is determined as missing
-- => data not received/configured
Back to Top Back to Top
6/17/2018 23:00 to 22:10 26.03 25.89 25.88 25.76 25.50 25.59
6/17/2018 22:00 to 21:10 25.74 25.77 25.51 25.45 25.45 25.58
6/17/2018 21:00 to 20:10 25.85 25.87 26.15 26.18 26.15 25.94
6/17/2018 20:00 to 19:10 25.68 25.84 25.53 25.14 25.17 25.32
6/17/2018 19:00 to 18:10 25.59 26.46 26.44 26.49 26.41 26.33
6/17/2018 18:00 to 17:10 26.06 26.28 26.43 26.51 26.17 26.05
6/17/2018 17:00 to 16:10 25.75 25.48 25.59 25.56 25.48 25.79
6/17/2018 16:00 to 15:10 26.21 26.10 26.17 27.07 27.05 27.36
6/17/2018 15:00 to 14:10 27.44 27.02 26.90 26.84 26.68 26.93
6/17/2018 14:00 to 13:10 27.22 27.52 27.69 27.56 27.70 27.60
6/17/2018 13:00 to 12:10 27.33 27.62 27.58 27.57 27.68 27.57
6/17/2018 12:00 to 11:10 27.67 27.53 27.50 27.63 27.66 27.52
6/17/2018 11:00 to 10:10 27.65 27.64 27.61 27.70 27.64 27.68
6/17/2018 10:00 to 9:10 27.64 27.73 27.66 27.81 27.67 27.71
6/17/2018 09:00 to 8:10 27.71 27.87 27.90 27.82 27.82 27.87
6/17/2018 08:00 to 7:10 27.88 27.83 27.86 27.88 27.80 27.84
6/17/2018 07:00 to 6:10 27.90 27.96 27.88 27.84 27.87 27.91
6/17/2018 06:00 to 5:10 27.78 27.83 27.95 27.87 27.89 27.97
6/17/2018 05:00 to 4:10 27.89 27.89 27.93 27.95 27.97 27.99
6/17/2018 04:00 to 3:10 27.97 28.01 27.95 27.92 27.99 28.04
6/17/2018 03:00 to 2:10 28.08 27.96 27.98 28.00 27.94 28.04
6/17/2018 02:00 to 1:10 27.92 28.04 27.93 28.01 28.16 28.06
6/17/2018 01:00 to 0:10 28.40 28.34 28.54 28.48 28.48 28.36
6/17/2018 00:00 to 23:10 28.29 28.24 28.36 28.24 28.32 28.30
6/16/2018 23:00 to 22:10 28.24 28.10 28.22 28.25 28.27 28.14
6/16/2018 22:00 to 21:10 28.22 28.09 28.21 28.18 28.21 28.20
6/16/2018 21:00 to 20:10 28.23 28.21 28.24 27.99 27.91 27.79
6/16/2018 20:00 to 19:10 27.56 28.06 27.86 27.89 27.62 28.09
6/16/2018 19:00 to 18:10 28.18 28.24 27.95 27.96 28.13 28.07
6/16/2018 18:00 to 17:10 28.29 28.28 28.16 28.14 28.13 28.25
6/16/2018 17:00 to 16:10 28.15 28.10 28.15 28.13 28.09 27.78
6/16/2018 16:00 to 15:10 28.04 27.82 27.79 27.67 27.68 27.92
6/16/2018 15:00 to 14:10 28.02 27.75 27.66 27.70 27.61 27.58
6/16/2018 14:00 to 13:10 27.64 27.57 27.53 27.67 27.56 27.55
6/16/2018 13:00 to 12:10 27.64 27.54 27.67 27.56 27.43 27.33
6/16/2018 12:00 to 11:10 27.27 27.17 27.18 27.06 27.00 27.35
6/16/2018 11:00 to 10:10 27.44 27.49 27.55 27.56 27.64 27.61
6/16/2018 10:00 to 9:10 27.58 27.70 27.78 27.72 27.75 27.76
6/16/2018 09:00 to 8:10 27.63 27.63 27.58 27.65 27.53 27.49
6/16/2018 08:00 to 7:10 27.45 27.58 27.55 27.56 27.58 27.51
6/16/2018 07:00 to 6:10 27.46 27.52 27.51 27.59 27.36 27.45
6/16/2018 06:00 to 5:10 27.46 27.39 27.38 27.21 27.28 27.31
6/16/2018 05:00 to 4:10 27.08 26.98 26.93 27.00 26.88 26.79
6/16/2018 04:00 to 3:10 26.99 27.15 27.42 27.24 27.32 27.27
6/16/2018 03:00 to 2:10 27.22 27.33 27.30 27.44 27.42 27.54
6/16/2018 02:00 to 1:10 27.56 27.61 27.49 27.20 27.20 27.11
6/16/2018 01:00 to 0:10 26.92 26.70 26.21 25.56 25.37 25.38